Latest Weather Observations for Essendon Airport

IDV60901

Issued at 11:51 pm EST Monday 26 September 2016 (issued every 10 minutes, with the page automatically refreshed every 10 minutes)

About weather observations | Map of Melbourne area stations | Latest observations for Melbourne area | Other Formats
Station Details ID: 086038 Name: ESSENDON AIRPORT Lat: -37.73 Lon: 144.91 Height: 78.4 m
Data from the previous 72 hours. | See also: Recent months at Essendon Airport
Date/Time
EST
Temp
°C
App
Temp
°C
Dew
Point
°C
Rel
Hum
%
Delta-T
°C
Wind Press
QNH
hPa
Press
MSL
hPa
Rain since
9am
mm
Dir  Spd
km/h
Gust
km/h
Spd
kts
Gust
kts
26/11:30pm 8.0 5.3 7.2 95 0.4 NNW 11 15 6 8 1009.8 1009.8 11.2
26/11:00pm 8.0 5.8 7.9 99 0.0 NNW 9 13 5 7 1009.9 1009.9 11.2
26/10:30pm 8.0 6.4 7.9 99 0.0 NNW 6 15 3 8 1009.4 1009.4 11.0
26/10:09pm 7.9 6.1 7.8 99 0.0 N 7 11 4 6 1010.4 1010.5 10.6
26/10:04pm 7.8 5.6 7.7 99 0.0 NNE 9 11 5 6 1010.5 1010.6 10.6
26/10:02pm 7.8 5.6 7.7 99 0.0 NE 9 11 5 6 1010.5 1010.6 10.6
26/10:00pm 7.7 5.4 7.6 99 0.0 NE 9 11 5 6 1010.5 1010.6 10.6
26/09:59pm 7.7 5.4 7.6 99 0.0 NE 9 11 5 6 1010.6 1010.7 10.6
26/09:42pm 7.7 5.4 7.6 99 0.0 NW 9 13 5 7 1011.3 1011.4 9.8
26/09:36pm 7.6 4.9 7.5 99 0.0 WNW 11 19 6 10 1011.1 1011.2 9.2
26/09:30pm 7.7 3.9 7.6 99 0.0 W 17 22 9 12 1011.3 1011.4 8.4
26/09:12pm 7.7 3.0 7.6 99 0.0 WSW 22 30 12 16 1011.0 1011.1 7.0
26/09:00pm 7.6 2.1 7.5 99 0.0 WSW 26 35 14 19 1010.9 1011.0 6.6
26/08:42pm 8.0 0.4 7.6 97 0.2 WSW 37 54 20 29 1010.9 1011.0 4.6
26/08:37pm 8.4 3.0 8.0 97 0.2 W 26 54 14 29 1010.7 1010.8 4.0
26/08:34pm 9.5 6.5 9.4 99 0.0 WNW 15 41 8 22 1010.6 1010.7 3.6
26/08:30pm 10.4 9.2 10.2 99 0.1 NE 7 15 4 8 1010.2 1010.2 3.6
26/08:00pm 10.0 8.2 9.5 97 0.3 ENE 9 11 5 6 1009.3 1009.3 3.6
26/07:30pm 10.5 9.5 8.9 90 0.8 N 4 9 2 5 1009.4 1009.4 3.4
26/07:00pm 11.2 9.3 8.9 86 1.1 NW 9 15 5 8 1009.8 1009.8 2.6
26/06:30pm 11.2 8.0 8.6 84 1.3 WNW 15 22 8 12 1009.7 1009.7 2.2
26/06:00pm 12.5 8.7 7.4 71 2.5 NNW 17 28 9 15 1009.2 1009.2 0.2
26/05:30pm 14.5 10.9 6.6 59 3.8 N 15 20 8 11 1008.6 1008.6 0.0
26/05:00pm 15.0 10.2 5.5 53 4.5 N 20 26 11 14 1008.4 1008.4 0.0
26/04:30pm 15.8 12.4 6.0 52 4.7 N 13 20 7 11 1008.4 1008.4 0.0
26/04:00pm 15.4 10.5 5.3 51 4.8 N 20 28 11 15 1008.7 1008.7 0.0
26/03:30pm 16.5 10.9 5.5 48 5.3 NNW 24 37 13 20 1008.9 1008.9 0.0
26/03:00pm 16.8 12.2 8.0 56 4.5 NW 22 33 12 18 1009.2 1009.2 0.0
26/02:30pm 15.1 11.2 5.3 52 4.7 NW 15 28 8 15 1009.3 1009.3 0.0
26/02:00pm 15.2 11.5 4.6 49 5.0 NW 13 22 7 12 1009.6 1009.6 0.0
26/01:30pm 15.9 12.0 5.2 49 5.1 NW 15 24 8 13 1009.8 1009.8 0.0
26/01:00pm 15.2 10.1 4.3 48 5.1 NW 20 28 11 15 1010.2 1010.2 0.0
26/12:30pm 15.8 12.7 5.4 50 5.0 NNW 11 17 6 9 1010.6 1010.7 0.0
26/12:00pm 16.6 13.2 7.5 55 4.6 NW 15 24 8 13 1011.1 1011.2 0.0
26/11:30am 15.6 12.8 6.9 56 4.3 NW 11 19 6 10 1011.4 1011.5 0.0
26/11:00am 15.8 12.8 7.6 58 4.1 N 13 17 7 9 1011.8 1011.9 0.0
26/10:30am 14.7 10.6 6.3 57 4.1 WNW 17 28 9 15 1012.3 1012.4 0.0
26/10:00am 12.8 8.8 5.0 59 3.6 WNW 15 28 8 15 1012.4 1012.5 0.0
26/09:30am 13.9 10.7 7.0 63 3.4 NW 13 19 7 10 1012.7 1012.8 0.0
26/09:00am 13.2 10.5 7.2 67 2.9 NW 11 17 6 9 1012.8 1012.9 0.4
26/08:30am 12.5 9.6 8.0 74 2.2 N 13 19 7 10 1012.8 1012.9 0.4
26/08:00am 11.3 8.4 8.2 81 1.5 N 13 19 7 10 1012.9 1013.0 0.4
26/07:30am 9.2 6.2 7.8 91 0.7 N 13 17 7 9 1013.1 1013.2 0.4
26/07:00am 8.7 7.1 8.6 99 0.0 N 7 9 4 5 1013.1 1013.2 0.4
26/06:30am 8.0 5.8 7.9 99 0.0 N 9 13 5 7 1013.0 1013.1 0.4
26/06:00am 7.9 5.3 7.8 99 0.0 N 11 13 6 7 1012.8 1012.9 0.4
26/05:30am 8.2 6.0 7.8 97 0.2 NNE 9 11 5 6 1012.7 1012.8 0.4
26/05:00am 9.0 7.2 7.9 93 0.5 NW 7 11 4 6 1012.9 1013.0 0.2
26/04:30am 8.9 7.0 7.7 92 0.6 NNW 7 11 4 6 1012.8 1012.9 0.2
26/04:00am 8.9 7.0 7.5 91 0.7 WNW 7 9 4 5 1012.9 1013.0 0.2
26/03:30am 8.9 6.9 7.0 88 0.9 NW 7 9 4 5 1012.7 1012.8 0.2
26/03:00am 8.6 6.6 7.1 90 0.7 NNW 7 9 4 5 1012.7 1012.8 0.2
26/02:30am 8.6 6.6 6.9 89 0.8 N 7 13 4 7 1012.8 1012.9 0.2
26/02:00am 8.3 5.9 7.1 92 0.6 N 9 13 5 7 1013.1 1013.2 0.2
26/01:30am 8.1 6.1 7.2 94 0.4 N 7 11 4 6 1013.3 1013.4 0.2
26/01:00am 8.0 5.7 7.6 97 0.2 N 9 11 5 6 1013.5 1013.6 0.2
26/12:30am 7.8 5.8 7.2 96 0.3 N 7 9 4 5 1013.7 1013.8 0.2
26/12:00am 7.4 4.9 6.5 94 0.4 N 9 11 5 6 1013.7 1013.8 0.2
 
Date/Time
EST
Temp
°C
App
Temp
°C
Dew
Point
°C
Rel
Hum
%
Delta-T
°C
Wind Press
QNH
hPa
Press
MSL
hPa
Rain since
9am
mm
Dir  Spd
km/h
Gust
km/h
Spd
kts
Gust
kts
25/11:30pm 7.8 5.3 6.6 92 0.6 N 9 9 5 5 1013.9 1014.0 0.2
25/11:00pm 8.4 6.0 6.9 90 0.7 NNW 9 11 5 6 1014.3 1014.4 0.2
25/10:30pm 9.0 7.1 7.5 90 0.7 N 7 9 4 5 1014.4 1014.5 0.2
25/10:00pm 9.0 6.8 6.3 83 1.2 NNW 7 9 4 5 1014.5 1014.6 0.2
25/09:30pm 10.2 9.2 5.8 74 2.0 CALM 0 0 0 0 1014.4 1014.5 0.2
25/09:00pm 10.2 8.9 6.2 76 1.9 SSW 2 6 1 3 1014.3 1014.4 0.2
25/08:30pm 10.1 8.1 6.1 76 1.9 SSW 6 7 3 4 1014.2 1014.3 0.2
25/08:00pm 10.4 7.9 6.7 78 1.7 SSW 9 11 5 6 1014.1 1014.2 0.2
25/07:30pm 9.6 7.3 5.8 77 1.7 SSW 7 9 4 5 1013.6 1013.7 0.2
25/07:00pm 10.0 7.0 6.0 76 1.9 S 11 15 6 8 1013.0 1013.1 0.2
25/06:30pm 10.2 7.2 5.8 74 2.0 S 11 17 6 9 1012.6 1012.7 0.2
25/06:00pm 11.0 7.9 5.7 70 2.5 SSE 11 17 6 9 1012.2 1012.3 0.2
25/05:30pm 11.8 7.2 5.4 65 3.0 S 19 26 10 14 1012.0 1012.1 0.2
25/05:00pm 12.0 8.2 5.6 65 3.0 S 15 26 8 14 1011.8 1011.9 0.2
25/04:30pm 12.7 9.2 5.6 62 3.3 SSW 13 19 7 10 1011.5 1011.6 0.2
25/04:00pm 12.5 9.5 5.9 64 3.1 S 11 20 6 11 1011.5 1011.6 0.2
25/03:30pm 12.2 8.3 7.3 72 2.4 S 17 24 9 13 1011.8 1011.9 0.2
25/03:00pm 12.1 7.6 6.2 67 2.8 S 19 26 10 14 1011.6 1011.7 0.2
25/02:30pm 13.3 8.1 7.1 66 3.0 S 24 32 13 17 1011.4 1011.5 0.2
25/02:00pm 13.7 7.8 3.8 51 4.5 SW 24 33 13 18 1011.4 1011.5 0.2
25/01:30pm 15.2 10.0 5.4 52 4.7 WSW 22 35 12 19 1011.3 1011.4 0.0
25/01:00pm 14.2 7.7 4.8 53 4.4 SW 28 44 15 24 1011.5 1011.6 0.0
25/12:30pm 13.3 7.2 5.0 57 3.9 SW 26 39 14 21 1011.7 1011.8 0.0
25/12:00pm 12.5 6.1 5.0 60 3.5 WSW 28 37 15 20 1011.8 1011.9 0.0
25/11:30am 12.5 6.0 4.7 59 3.6 SW 28 37 15 20 1011.7 1011.8 0.0
25/11:00am 12.8 6.3 4.8 58 3.7 WSW 28 39 15 21 1011.7 1011.8 0.0
25/10:30am 13.0 7.1 5.7 61 3.4 SW 26 39 14 21 1011.7 1011.8 0.0
25/10:00am 12.2 5.9 5.6 64 3.1 SW 28 37 15 20 1011.6 1011.7 0.0
25/09:30am 12.0 6.6 6.5 69 2.6 WSW 24 35 13 19 1011.6 1011.7 0.0
25/09:00am 11.1 6.1 6.3 72 2.3 WSW 22 30 12 16 1011.2 1011.3 7.6
25/08:30am 10.5 5.5 6.3 75 2.0 W 22 30 12 16 1010.9 1011.0 7.6
25/08:00am 10.0 5.1 6.9 81 1.5 W 22 33 12 18 1010.7 1010.8 7.6
25/07:30am 9.3 5.8 7.3 87 0.9 W 15 20 8 11 1010.4 1010.5 7.6
25/07:00am 8.5 5.1 7.7 95 0.4 WNW 15 20 8 11 1010.0 1010.0 7.6
25/06:30am 8.0 5.0 7.6 97 0.2 W 13 17 7 9 1009.7 1009.7 7.6
25/06:00am 8.1 5.1 7.7 97 0.2 W 13 19 7 10 1009.2 1009.2 7.6
25/05:30am 8.6 5.0 8.2 97 0.2 W 17 22 9 12 1009.0 1009.0 7.6
25/05:00am 8.9 5.7 8.6 98 0.1 WSW 15 20 8 11 1008.6 1008.6 7.6
25/04:30am 9.4 6.8 9.3 99 0.0 W 13 17 7 9 1008.3 1008.3 7.6
25/04:00am 9.3 6.2 9.0 98 0.1 W 15 19 8 10 1007.8 1007.8 7.6
25/03:30am 10.2 7.0 10.1 99 0.1 W 17 22 9 12 1007.5 1007.5 7.6
25/03:03am 10.8 7.8 10.6 99 0.1 WSW 17 20 9 11 1007.2 1007.2 7.6
25/03:00am 10.9 7.9 10.7 99 0.1 WSW 17 20 9 11 1007.2 1007.2 7.6
25/02:39am 11.3 8.8 11.1 99 0.1 WSW 15 20 8 11 1007.2 1007.2 7.6
25/02:30am 11.3 9.2 11.1 99 0.1 WSW 13 17 7 9 1007.2 1007.2 7.6
25/02:00am 11.3 9.2 11.3 100 0.0 WSW 13 19 7 10 1007.1 1007.1 7.6
25/01:30am 11.4 9.0 11.4 100 0.0 WSW 15 20 8 11 1007.2 1007.2 7.6
25/01:14am 11.5 9.1 11.5 100 0.0 W 15 19 8 10 1007.1 1007.1 7.4
25/01:00am 11.8 9.5 11.8 100 0.0 W 15 20 8 11 1007.1 1007.1 7.0
25/12:54am 12.0 10.5 11.8 99 0.1 WNW 11 17 6 9 1007.0 1007.0 6.2
25/12:30am 12.0 10.9 11.8 99 0.1 N 9 11 5 6 1006.6 1006.6 4.4
25/12:00am 12.0 10.9 11.8 99 0.1 N 9 13 5 7 1006.4 1006.4 3.6
 
Date/Time
EST
Temp
°C
App
Temp
°C
Dew
Point
°C
Rel
Hum
%
Delta-T
°C
Wind Press
QNH
hPa
Press
MSL
hPa
Rain since
9am
mm
Dir  Spd
km/h
Gust
km/h
Spd
kts
Gust
kts
24/11:30pm 12.0 10.9 11.8 99 0.1 N 9 11 5 6 1006.6 1006.6 3.2
24/11:00pm 12.1 11.0 11.9 99 0.1 N 9 11 5 6 1006.7 1006.7 1.8
24/10:30pm 12.1 11.0 11.8 98 0.2 N 9 13 5 7 1006.6 1006.6 1.4
24/10:00pm 12.3 10.7 11.4 94 0.5 N 11 15 6 8 1006.7 1006.7 0.8
24/09:30pm 12.7 10.2 10.9 89 0.9 NNW 15 19 8 10 1006.7 1006.7 0.4
24/09:00pm 13.3 9.8 10.3 82 1.6 N 19 26 10 14 1006.5 1006.5 0.0
24/08:30pm 13.4 10.3 10.2 81 1.7 N 17 24 9 13 1006.5 1006.5 0.0
24/08:00pm 13.5 10.0 10.3 81 1.7 NNW 19 28 10 15 1006.5 1006.5 0.0
24/07:30pm 13.9 9.7 9.9 77 2.1 NNW 22 32 12 17 1006.4 1006.4 0.0
24/07:00pm 14.2 8.9 10.0 76 2.2 NNW 28 39 15 21 1006.2 1006.2 0.0
24/06:30pm 14.8 9.8 9.6 71 2.7 N 26 35 14 19 1006.0 1006.0 0.0
24/06:00pm 15.9 11.9 8.4 61 3.8 N 19 30 10 16 1006.0 1006.0 0.0
24/05:30pm 16.4 11.9 8.4 59 4.1 N 22 33 12 18 1005.9 1005.9 0.0
24/05:00pm 16.8 11.8 8.0 56 4.5 N 24 39 13 21 1005.6 1005.6 0.0
24/04:30pm 16.9 11.5 8.1 56 4.5 N 26 41 14 22 1005.4 1005.4 0.0
24/04:00pm 17.3 11.4 7.4 52 5.0 N 28 43 15 23 1005.4 1005.4 0.0
24/03:30pm 17.9 11.7 7.9 52 5.1 N 30 44 16 24 1005.4 1005.4 0.0
24/03:00pm 18.4 11.2 7.8 50 5.4 N 35 48 19 26 1005.7 1005.7 0.0
24/02:30pm 18.5 11.6 7.3 48 5.7 N 33 44 18 24 1005.9 1005.9 0.0
24/02:00pm 18.7 12.3 8.4 51 5.4 N 32 44 17 24 1006.1 1006.1 0.0
24/01:30pm 18.8 11.7 7.9 49 5.6 N 35 46 19 25 1006.6 1006.6 0.0
24/01:00pm 18.5 12.0 8.2 51 5.3 N 32 43 17 23 1006.6 1006.6 0.0
24/12:30pm 18.0 11.7 8.8 55 4.8 N 32 50 17 27 1007.1 1007.1 0.0
24/12:28pm 17.9 11.4 8.2 53 5.0 N 32 50 17 27 1007.1 1007.1 0.0
24/12:00pm 17.6 10.8 7.9 53 5.0 N 33 46 18 25 1007.4 1007.4 0.0
24/11:48am 17.4 10.7 7.5 52 5.0 N 32 52 17 28 1007.5 1007.5 0.0
24/11:30am 17.2 10.2 7.0 51 5.1 N 33 48 18 26 1007.6 1007.6 0.0
24/11:00am 17.1 10.7 8.5 57 4.4 N 32 48 17 26 1008.0 1008.0 0.0
24/10:30am 16.7 10.0 8.1 57 4.4 N 33 46 18 25 1008.1 1008.1 0.0
24/10:15am 16.8 11.3 9.0 60 4.0 N 28 46 15 25 1008.3 1008.3 0.0
24/10:00am 16.2 10.6 8.7 61 3.9 NNE 28 39 15 21 1008.5 1008.5 0.0
24/09:30am 15.3 9.8 9.2 67 3.1 NNE 28 39 15 21 1009.1 1009.1 0.0
24/09:00am 14.8 11.1 10.2 74 2.4 N 20 30 11 16 1009.6 1009.6 0.0
24/08:30am 13.7 9.5 9.7 77 2.1 N 22 30 12 16 1009.9 1009.9 0.0
24/08:00am 12.8 8.7 10.0 83 1.4 N 22 30 12 16 1010.0 1010.0 0.0
24/07:30am 11.6 7.9 9.5 87 1.1 N 19 26 10 14 1010.3 1010.3 0.0
24/07:00am 10.7 7.8 9.8 94 0.5 N 15 19 8 10 1010.2 1010.2 0.0
24/06:30am 9.2 6.5 8.9 98 0.1 N 13 17 7 9 1010.0 1010.0 0.0
24/06:00am 9.2 6.8 8.6 96 0.3 N 11 15 6 8 1009.9 1009.9 0.0
24/05:30am 9.4 7.0 8.5 94 0.4 N 11 15 6 8 1009.8 1009.8 0.0
24/05:00am 10.0 8.4 8.9 93 0.5 N 7 11 4 6 1009.8 1009.8 0.0
24/04:30am 10.3 8.8 9.2 93 0.5 N 7 9 4 5 1009.8 1009.8 0.0
24/04:00am 10.8 9.0 9.6 92 0.6 NNW 9 11 5 6 1009.9 1009.9 0.0
24/03:30am 11.0 8.7 10.4 96 0.3 NNE 13 17 7 9 1010.0 1010.0 0.0
24/03:00am 10.3 8.6 9.7 96 0.3 N 9 13 5 7 1009.9 1009.9 0.0
24/02:30am 10.0 10.0 9.7 98 0.2 CALM 0 0 0 0 1010.2 1010.2 0.0
24/02:00am 9.5 9.3 9.0 97 0.2 CALM 0 0 0 0 1010.6 1010.7 0.0
24/01:30am 10.2 9.7 9.4 95 0.4 NW 2 7 1 4 1010.8 1010.9 0.0
24/01:00am 10.2 8.4 9.4 95 0.4 WNW 9 11 5 6 1011.0 1011.1 0.0
24/12:30am 10.4 8.2 9.5 94 0.5 NW 11 13 6 7 1010.9 1011.0 0.0
24/12:26am 10.3 8.5 9.4 94 0.5 NW 9 13 5 7 1010.9 1011.0 0.0
24/12:11am 10.2 8.7 9.3 94 0.4 NW 7 11 4 6 1010.9 1011.0 0.0
24/12:00am 10.3 9.1 9.5 95 0.4 WNW 6 9 3 5 1010.9 1011.0 0.0
 
Date/Time
EST
Temp
°C
App
Temp
°C
Dew
Point
°C
Rel
Hum
%
Delta-T
°C
Wind Press
QNH
hPa
Press
MSL
hPa
Rain since
9am
mm
Dir  Spd
km/h
Gust
km/h
Spd
kts
Gust
kts
23/11:57pm 10.0 9.1 9.1 94 0.4 NW 4 9 2 5 1011.0 1011.1 0.0

Latest Capital City Observations: Canberra | Sydney | Melbourne | Brisbane | Adelaide | Perth | Hobart | Darwin

Other Formats:

Comma delimited format used in spreadsheet applications
http://www.bom.gov.au/fwo/IDV60901/IDV60901.95866.axf

JavaScript Object Notation format (JSON) in row-major order
http://www.bom.gov.au/fwo/IDV60901/IDV60901.95866.json